Hauptseite
METAR-TAF:

METAR-TAF

Flughäfen :

Stornoway Airport

Stornoway, Schottland

Breite: 58-13N, Länge: 006-19W, Höhe: 9 m

Beobachtung

Neuester Wetterbericht von vor 34 Minuten, um 08:20 UTC
Wind 4 kt aus Süd/Südwest
Temperatur 8°C
Luftfeuchtigkeit 81%
Luftdruck 1034 hPa
Sichtweite 10 km oder mehr
Leicht bewölkt in der Höhe von 1500 ft

METAR: EGPO 140820Z 21004KT 9999 FEW015 08/05 Q1034

Zeit: 09:54 (08:54 UTC)

Prognose

Neuester Wetterbericht von vor 53 Minuten, um 08:01 UTC
Gültige Prognose vom 14 um 09 UTC bis 14 um 18 UTC
Wind 5 kt aus Süd/Südwest
Sichtweite 10 km oder mehr
Leicht bewölkt in der Höhe von 2500 ft

TAF: EGPO 140801Z 1409/1418 20005KT 9999 FEW025

Wetterbeobachtungen und Prognosen von mehr als 4000 Flughäfen (METAR und TAF Bericht).

Die verfügbaren Stationen werden durch gelbe und rote Markierungen auf der Karte dargestellt.

Führen Sie die Maus auf sie, um den Namen der Station zu sehen.

Darauf klicken, um die Beobachtung von Wetterbeobachtungen und Prognosen zu sehen.

Um die Karte zu ändern : klicken Sie auf den grünen Tasten mit einem schwarzen Kreuz Zum Vergrößern, auf den grünen Button mit einem Gedankenstrich zu verkleinern, oder auf die grünen Pfeile für benachbarte Karten.


METAR-TAF: